sensor_id;sensor_type;location;lat;lon;timestamp;pressure;altitude;pressure_sealevel;temperature;humidity
4346;BME280;2186;49.866;7.986;2023-02-18T00:01:00;101072.75;;;13.43;100.00
4346;BME280;2186;49.866;7.986;2023-02-18T00:03:27;101068.81;;;13.56;100.00
4346;BME280;2186;49.866;7.986;2023-02-18T00:05:54;101066.47;;;13.45;100.00
4346;BME280;2186;49.866;7.986;2023-02-18T00:08:21;101064.72;;;13.44;100.00
4346;BME280;2186;49.866;7.986;2023-02-18T00:10:48;101067.56;;;13.37;100.00
4346;BME280;2186;49.866;7.986;2023-02-18T00:13:14;101059.69;;;13.32;100.00
4346;BME280;2186;49.866;7.986;2023-02-18T00:15:41;101062.41;;;13.30;100.00
4346;BME280;2186;49.866;7.986;2023-02-18T00:18:08;101060.63;;;13.31;100.00
4346;BME280;2186;49.866;7.986;2023-02-18T00:20:37;101057.91;;;13.32;100.00
4346;BME280;2186;49.866;7.986;2023-02-18T00:23:04;101067.66;;;13.33;100.00
4346;BME280;2186;49.866;7.986;2023-02-18T00:25:30;101066.06;;;13.26;100.00
4346;BME280;2186;49.866;7.986;2023-02-18T00:27:57;101073.09;;;13.30;100.00
4346;BME280;2186;49.866;7.986;2023-02-18T00:30:23;101064.16;;;13.31;100.00
4346;BME280;2186;49.866;7.986;2023-02-18T00:32:50;101066.06;;;13.26;100.00
4346;BME280;2186;49.866;7.986;2023-02-18T00:35:16;101065.88;;;13.34;100.00
4346;BME280;2186;49.866;7.986;2023-02-18T00:37:43;101057.88;;;13.34;100.00
4346;BME280;2186;49.866;7.986;2023-02-18T00:40:09;101049.91;;;13.32;100.00
4346;BME280;2186;49.866;7.986;2023-02-18T00:42:36;101044.56;;;13.32;100.00
4346;BME280;2186;49.866;7.986;2023-02-18T00:45:02;101059.56;;;13.37;100.00
4346;BME280;2186;49.866;7.986;2023-02-18T00:47:29;101062.06;;;13.43;100.00
4346;BME280;2186;49.866;7.986;2023-02-18T00:49:55;101064.91;;;13.37;100.00
4346;BME280;2186;49.866;7.986;2023-02-18T00:52:22;101057.97;;;13.31;100.00
4346;BME280;2186;49.866;7.986;2023-02-18T00:54:49;101064.72;;;13.43;100.00
4346;BME280;2186;49.866;7.986;2023-02-18T00:57:15;101066.78;;;13.33;100.00
4346;BME280;2186;49.866;7.986;2023-02-18T00:59:42;101077.63;;;13.27;100.00
4346;BME280;2186;49.866;7.986;2023-02-18T01:02:08;101066.56;;;13.41;100.00
4346;BME280;2186;49.866;7.986;2023-02-18T01:04:34;101058.88;;;13.30;100.00
4346;BME280;2186;49.866;7.986;2023-02-18T01:07:01;101061.59;;;13.27;100.00
4346;BME280;2186;49.866;7.986;2023-02-18T01:09:27;101052.63;;;13.31;100.00
4346;BME280;2186;49.866;7.986;2023-02-18T01:11:54;101058.84;;;13.31;100.00
4346;BME280;2186;49.866;7.986;2023-02-18T01:14:21;101065.81;;;13.36;100.00
4346;BME280;2186;49.866;7.986;2023-02-18T01:16:47;101064.47;;;13.21;100.00
4346;BME280;2186;49.866;7.986;2023-02-18T01:19:13;101074.81;;;13.33;100.00
4346;BME280;2186;49.866;7.986;2023-02-18T01:21:40;101064.88;;;13.38;100.00
4346;BME280;2186;49.866;7.986;2023-02-18T01:24:06;101069.66;;;13.25;100.00
4346;BME280;2186;49.866;7.986;2023-02-18T01:26:33;101060.91;;;13.20;100.00
4346;BME280;2186;49.866;7.986;2023-02-18T01:28:59;101065.19;;;13.26;100.00
4346;BME280;2186;49.866;7.986;2023-02-18T01:31:26;101060.03;;;13.20;100.00
4346;BME280;2186;49.866;7.986;2023-02-18T01:33:53;101057.28;;;13.23;100.00
4346;BME280;2186;49.866;7.986;2023-02-18T01:36:19;101058.97;;;13.25;100.00
4346;BME280;2186;49.866;7.986;2023-02-18T01:38:46;101058.16;;;13.23;100.00
4346;BME280;2186;49.866;7.986;2023-02-18T01:41:12;101046.75;;;13.15;100.00
4346;BME280;2186;49.866;7.986;2023-02-18T01:43:39;101052.06;;;13.18;100.00
4346;BME280;2186;49.866;7.986;2023-02-18T01:46:10;101045.00;;;13.48;99.94
4346;BME280;2186;49.866;7.986;2023-02-18T01:51:33;101036.69;;;13.26;100.00
4346;BME280;2186;49.866;7.986;2023-02-18T01:54:22;101038.41;;;13.29;100.00
4346;BME280;2186;49.866;7.986;2023-02-18T01:59:25;101027.91;;;13.23;100.00
4346;BME280;2186;49.866;7.986;2023-02-18T02:01:53;101020.69;;;13.26;100.00
4346;BME280;2186;49.866;7.986;2023-02-18T02:04:21;101009.75;;;13.01;100.00
4346;BME280;2186;49.866;7.986;2023-02-18T02:06:47;101010.34;;;13.13;100.00
4346;BME280;2186;49.866;7.986;2023-02-18T02:09:17;101004.97;;;13.14;100.00
4346;BME280;2186;49.866;7.986;2023-02-18T02:22:59;100982.28;;;13.32;100.00
4346;BME280;2186;49.866;7.986;2023-02-18T02:28:59;100976.16;;;13.27;100.00
4346;BME280;2186;49.866;7.986;2023-02-18T02:45:25;100979.16;;;13.15;100.00
4346;BME280;2186;49.866;7.986;2023-02-18T02:47:58;100973.84;;;13.13;100.00
4346;BME280;2186;49.866;7.986;2023-02-18T02:50:46;100973.63;;;13.22;100.00
4346;BME280;2186;49.866;7.986;2023-02-18T02:53:22;100971.19;;;13.13;100.00
4346;BME280;2186;49.866;7.986;2023-02-18T02:55:50;100962.41;;;13.10;100.00
4346;BME280;2186;49.866;7.986;2023-02-18T02:58:18;100959.38;;;13.23;100.00
4346;BME280;2186;49.866;7.986;2023-02-18T03:00:49;100965.72;;;13.19;100.00
4346;BME280;2186;49.866;7.986;2023-02-18T03:09:20;100964.09;;;13.12;100.00
4346;BME280;2186;49.866;7.986;2023-02-18T03:12:29;100970.59;;;13.03;100.00
4346;BME280;2186;49.866;7.986;2023-02-18T03:17:57;100956.00;;;13.15;100.00
4346;BME280;2186;49.866;7.986;2023-02-18T03:20:27;100956.84;;;12.85;100.00
4346;BME280;2186;49.866;7.986;2023-02-18T03:22:57;100956.53;;;12.97;100.00
4346;BME280;2186;49.866;7.986;2023-02-18T03:25:27;100953.59;;;13.06;100.00
4346;BME280;2186;49.866;7.986;2023-02-18T03:27:58;100960.69;;;13.07;100.00
4346;BME280;2186;49.866;7.986;2023-02-18T03:30:51;100959.78;;;13.08;100.00
4346;BME280;2186;49.866;7.986;2023-02-18T03:33:29;100968.84;;;13.01;100.00
4346;BME280;2186;49.866;7.986;2023-02-18T03:35:57;100951.75;;;13.08;100.00
4346;BME280;2186;49.866;7.986;2023-02-18T03:41:11;100947.94;;;12.86;100.00
4346;BME280;2186;49.866;7.986;2023-02-18T03:43:40;100954.69;;;12.99;100.00
4346;BME280;2186;49.866;7.986;2023-02-18T03:46:06;100959.19;;;12.97;100.00
4346;BME280;2186;49.866;7.986;2023-02-18T03:48:33;100953.41;;;12.81;100.00
4346;BME280;2186;49.866;7.986;2023-02-18T03:51:00;100954.03;;;12.91;100.00
4346;BME280;2186;49.866;7.986;2023-02-18T03:53:26;100959.38;;;12.91;100.00
4346;BME280;2186;49.866;7.986;2023-02-18T03:55:53;100958.31;;;12.96;100.00
4346;BME280;2186;49.866;7.986;2023-02-18T03:58:19;100953.16;;;12.90;100.00
4346;BME280;2186;49.866;7.986;2023-02-18T04:00:46;100954.66;;;12.68;100.00
4346;BME280;2186;49.866;7.986;2023-02-18T04:03:12;100949.94;;;12.78;100.00
4346;BME280;2186;49.866;7.986;2023-02-18T04:05:38;100945.84;;;12.64;100.00
4346;BME280;2186;49.866;7.986;2023-02-18T04:08:05;100939.69;;;12.62;100.00
4346;BME280;2186;49.866;7.986;2023-02-18T04:10:31;100931.34;;;12.74;100.00
4346;BME280;2186;49.866;7.986;2023-02-18T04:12:58;100925.41;;;12.65;100.00
4346;BME280;2186;49.866;7.986;2023-02-18T04:15:25;100926.28;;;12.65;100.00
4346;BME280;2186;49.866;7.986;2023-02-18T04:17:51;100933.13;;;12.75;100.00
4346;BME280;2186;49.866;7.986;2023-02-18T04:20:18;100931.19;;;12.81;100.00
4346;BME280;2186;49.866;7.986;2023-02-18T04:22:44;100926.78;;;12.80;100.00
4346;BME280;2186;49.866;7.986;2023-02-18T04:25:11;100923.84;;;12.89;100.00
4346;BME280;2186;49.866;7.986;2023-02-18T04:27:37;100922.06;;;12.88;100.00
4346;BME280;2186;49.866;7.986;2023-02-18T04:30:05;100920.72;;;12.73;100.00
4346;BME280;2186;49.866;7.986;2023-02-18T04:32:32;100923.41;;;12.71;100.00
4346;BME280;2186;49.866;7.986;2023-02-18T04:34:58;100921.66;;;12.70;100.00
4346;BME280;2186;49.866;7.986;2023-02-18T04:37:24;100918.00;;;12.74;100.00
4346;BME280;2186;49.866;7.986;2023-02-18T04:39:51;100912.75;;;12.71;100.00
4346;BME280;2186;49.866;7.986;2023-02-18T04:42:18;100928.75;;;12.71;100.00
4346;BME280;2186;49.866;7.986;2023-02-18T04:44:44;100921.81;;;12.66;100.00
4346;BME280;2186;49.866;7.986;2023-02-18T04:47:13;100926.03;;;12.73;100.00
4346;BME280;2186;49.866;7.986;2023-02-18T04:49:39;100925.75;;;12.84;100.00
4346;BME280;2186;49.866;7.986;2023-02-18T04:52:06;100922.06;;;12.88;100.00
4346;BME280;2186;49.866;7.986;2023-02-18T04:54:32;100929.53;;;12.77;100.00
4346;BME280;2186;49.866;7.986;2023-02-18T04:56:59;100926.03;;;12.73;100.00
4346;BME280;2186;49.866;7.986;2023-02-18T04:59:25;100933.75;;;12.84;100.00
4346;BME280;2186;49.866;7.986;2023-02-18T05:01:52;100929.56;;;12.75;100.00
4346;BME280;2186;49.866;7.986;2023-02-18T05:04:18;100920.78;;;12.70;100.00
4346;BME280;2186;49.866;7.986;2023-02-18T05:06:45;100916.34;;;12.70;100.00
4346;BME280;2186;49.866;7.986;2023-02-18T05:09:11;100915.78;;;12.58;100.00
4346;BME280;2186;49.866;7.986;2023-02-18T05:11:38;100924.34;;;12.70;100.00
4346;BME280;2186;49.866;7.986;2023-02-18T05:14:05;100922.34;;;12.79;99.85
4346;BME280;2186;49.866;7.986;2023-02-18T05:16:31;100922.53;;;12.71;99.71
4346;BME280;2186;49.866;7.986;2023-02-18T05:18:58;100921.75;;;12.67;99.38
4346;BME280;2186;49.866;7.986;2023-02-18T05:21:24;100926.22;;;12.67;99.15
4346;BME280;2186;49.866;7.986;2023-02-18T05:23:51;100920.28;;;12.88;98.51
4346;BME280;2186;49.866;7.986;2023-02-18T05:26:17;100912.41;;;12.84;97.59
4346;BME280;2186;49.866;7.986;2023-02-18T05:28:44;100914.78;;;12.63;98.21
4346;BME280;2186;49.866;7.986;2023-02-18T05:31:11;100920.16;;;12.60;97.99
4346;BME280;2186;49.866;7.986;2023-02-18T05:33:37;100914.09;;;12.55;97.61
4346;BME280;2186;49.866;7.986;2023-02-18T05:36:04;100911.38;;;12.57;97.91
4346;BME280;2186;49.866;7.986;2023-02-18T05:38:31;100925.53;;;12.59;96.47
4346;BME280;2186;49.866;7.986;2023-02-18T05:40:57;100924.66;;;12.58;96.56
4346;BME280;2186;49.866;7.986;2023-02-18T05:43:24;100916.66;;;12.58;96.30
4346;BME280;2186;49.866;7.986;2023-02-18T05:45:50;100908.28;;;12.72;95.36
4346;BME280;2186;49.866;7.986;2023-02-18T05:48:17;100923.69;;;12.62;94.29
4346;BME280;2186;49.866;7.986;2023-02-18T05:50:43;100921.13;;;12.58;94.04
4346;BME280;2186;49.866;7.986;2023-02-18T05:53:09;100906.25;;;12.49;93.77
4346;BME280;2186;49.866;7.986;2023-02-18T05:55:36;100911.66;;;12.48;92.87
4346;BME280;2186;49.866;7.986;2023-02-18T05:58:05;100910.94;;;12.39;93.61
4346;BME280;2186;49.866;7.986;2023-02-18T06:00:31;100901.00;;;12.46;93.53
4346;BME280;2186;49.866;7.986;2023-02-18T06:02:58;100902.59;;;12.53;92.44
4346;BME280;2186;49.866;7.986;2023-02-18T06:05:24;100897.38;;;12.49;92.68
4346;BME280;2186;49.866;7.986;2023-02-18T06:07:51;100912.47;;;12.50;91.86
4346;BME280;2186;49.866;7.986;2023-02-18T06:10:19;100906.41;;;12.43;90.92
4346;BME280;2186;49.866;7.986;2023-02-18T06:12:46;100903.69;;;12.44;91.50
4346;BME280;2186;49.866;7.986;2023-02-18T06:15:12;100908.28;;;12.39;91.36
4346;BME280;2186;49.866;7.986;2023-02-18T06:17:39;100898.44;;;12.41;90.29
4346;BME280;2186;49.866;7.986;2023-02-18T06:20:06;100898.41;;;12.43;90.34
4346;BME280;2186;49.866;7.986;2023-02-18T06:22:33;100897.81;;;12.32;89.98
4346;BME280;2186;49.866;7.986;2023-02-18T06:24:59;100900.38;;;12.36;89.46
4346;BME280;2186;49.866;7.986;2023-02-18T06:27:25;100899.25;;;12.45;89.08
4346;BME280;2186;49.866;7.986;2023-02-18T06:29:52;100900.97;;;12.48;89.50
4346;BME280;2186;49.866;7.986;2023-02-18T06:32:18;100900.16;;;12.44;88.38
4346;BME280;2186;49.866;7.986;2023-02-18T06:34:45;100904.56;;;12.45;88.50
4346;BME280;2186;49.866;7.986;2023-02-18T06:37:11;100906.91;;;12.57;88.50
4346;BME280;2186;49.866;7.986;2023-02-18T06:39:38;100894.59;;;12.53;88.03
4346;BME280;2186;49.866;7.986;2023-02-18T06:42:05;100902.72;;;12.47;88.57
4346;BME280;2186;49.866;7.986;2023-02-18T06:44:31;100894.91;;;12.41;88.50
4346;BME280;2186;49.866;7.986;2023-02-18T06:46:58;100900.28;;;12.39;87.81
4346;BME280;2186;49.866;7.986;2023-02-18T06:49:25;100885.91;;;12.45;87.52
4346;BME280;2186;49.866;7.986;2023-02-18T06:51:51;100895.56;;;12.51;88.24
4346;BME280;2186;49.866;7.986;2023-02-18T06:54:18;100899.59;;;12.31;87.83
4346;BME280;2186;49.866;7.986;2023-02-18T06:56:44;100906.13;;;12.20;86.72
4346;BME280;2186;49.866;7.986;2023-02-18T06:59:11;100902.56;;;12.19;86.76
4346;BME280;2186;49.866;7.986;2023-02-18T07:01:37;100902.25;;;12.31;86.51
4346;BME280;2186;49.866;7.986;2023-02-18T07:04:04;100897.84;;;12.30;86.90
4346;BME280;2186;49.866;7.986;2023-02-18T07:06:31;100887.84;;;12.40;86.84
4346;BME280;2186;49.866;7.986;2023-02-18T07:08:57;100883.19;;;12.48;86.29
4346;BME280;2186;49.866;7.986;2023-02-18T07:11:24;100877.13;;;12.41;86.90
4346;BME280;2186;49.866;7.986;2023-02-18T07:13:50;100885.84;;;12.48;86.60
4346;BME280;2186;49.866;7.986;2023-02-18T07:16:17;100881.41;;;12.47;86.35
4346;BME280;2186;49.866;7.986;2023-02-18T07:18:44;100888.53;;;12.46;86.22
4346;BME280;2186;49.866;7.986;2023-02-18T07:21:11;100882.31;;;12.46;85.92
4346;BME280;2186;49.866;7.986;2023-02-18T07:23:37;100885.28;;;12.35;86.74
4346;BME280;2186;49.866;7.986;2023-02-18T07:26:11;100885.47;;;12.28;87.20
4346;BME280;2186;49.866;7.986;2023-02-18T07:28:39;100887.75;;;12.43;86.09
4346;BME280;2186;49.866;7.986;2023-02-18T07:31:05;100879.09;;;12.35;86.47
4346;BME280;2186;49.866;7.986;2023-02-18T07:33:33;100877.44;;;12.29;87.18
4346;BME280;2186;49.866;7.986;2023-02-18T07:36:00;100871.75;;;12.43;86.25
4346;BME280;2186;49.866;7.986;2023-02-18T07:38:27;100883.50;;;12.36;86.28
4346;BME280;2186;49.866;7.986;2023-02-18T07:40:54;100878.22;;;12.33;86.63
4346;BME280;2186;49.866;7.986;2023-02-18T07:43:21;100882.63;;;12.35;86.37
4346;BME280;2186;49.866;7.986;2023-02-18T07:45:47;100871.28;;;12.27;86.31
4346;BME280;2186;49.866;7.986;2023-02-18T07:48:15;100866.81;;;12.28;86.84
4346;BME280;2186;49.866;7.986;2023-02-18T07:50:43;100870.38;;;12.28;86.48
4346;BME280;2186;49.866;7.986;2023-02-18T07:53:11;100865.03;;;12.28;86.57
4346;BME280;2186;49.866;7.986;2023-02-18T07:55:38;100868.44;;;12.33;86.54
4346;BME280;2186;49.866;7.986;2023-02-18T07:58:26;100873.84;;;12.30;86.93
4346;BME280;2186;49.866;7.986;2023-02-18T08:00:53;100876.13;;;12.45;86.54
4346;BME280;2186;49.866;7.986;2023-02-18T08:03:23;100877.63;;;12.56;86.20
4346;BME280;2186;49.866;7.986;2023-02-18T08:05:51;100873.25;;;12.53;85.20
4346;BME280;2186;49.866;7.986;2023-02-18T08:08:21;100874.19;;;12.52;85.72
4346;BME280;2186;49.866;7.986;2023-02-18T08:10:49;100870.41;;;12.59;85.91
4346;BME280;2186;49.866;7.986;2023-02-18T08:13:16;100858.09;;;12.55;85.32
4346;BME280;2186;49.866;7.986;2023-02-18T08:15:42;100868.06;;;12.47;85.39
4346;BME280;2186;49.866;7.986;2023-02-18T08:18:21;100870.59;;;12.53;86.05
4346;BME280;2186;49.866;7.986;2023-02-18T08:20:48;100863.47;;;12.54;86.12
4346;BME280;2186;49.866;7.986;2023-02-18T08:23:21;100850.56;;;12.69;86.00
4346;BME280;2186;49.866;7.986;2023-02-18T08:25:49;100858.63;;;12.68;84.52
4346;BME280;2186;49.866;7.986;2023-02-18T08:28:17;100861.44;;;12.63;83.15
4346;BME280;2186;49.866;7.986;2023-02-18T08:30:48;100871.00;;;12.70;83.21
4346;BME280;2186;49.866;7.986;2023-02-18T08:33:15;100866.56;;;12.69;83.27
4346;BME280;2186;49.866;7.986;2023-02-18T08:35:43;100864.69;;;12.73;82.35
4346;BME280;2186;49.866;7.986;2023-02-18T08:38:11;100867.09;;;12.82;82.67
4346;BME280;2186;49.866;7.986;2023-02-18T08:40:37;100867.81;;;12.89;82.22
4346;BME280;2186;49.866;7.986;2023-02-18T08:43:03;100874.06;;;12.88;82.24
4346;BME280;2186;49.866;7.986;2023-02-18T08:45:30;100887.31;;;12.91;81.57
4346;BME280;2186;49.866;7.986;2023-02-18T08:47:56;100895.88;;;12.71;81.54
4346;BME280;2186;49.866;7.986;2023-02-18T08:50:43;100885.97;;;12.74;81.37
4346;BME280;2186;49.866;7.986;2023-02-18T08:53:09;100878.84;;;12.77;82.18
4346;BME280;2186;49.866;7.986;2023-02-18T08:55:39;100886.50;;;12.89;81.94
4346;BME280;2186;49.866;7.986;2023-02-18T08:58:07;100883.75;;;12.92;81.61
4346;BME280;2186;49.866;7.986;2023-02-18T09:00:34;100896.50;;;12.81;81.97
4346;BME280;2186;49.866;7.986;2023-02-18T09:03:01;100882.25;;;12.82;80.37
4346;BME280;2186;49.866;7.986;2023-02-18T09:05:27;100876.41;;;12.67;80.80
4346;BME280;2186;49.866;7.986;2023-02-18T09:07:54;100880.44;;;12.82;80.75
4346;BME280;2186;49.866;7.986;2023-02-18T09:10:21;100875.53;;;12.67;81.21
4346;BME280;2186;49.866;7.986;2023-02-18T09:12:47;100879.63;;;12.80;80.07
4346;BME280;2186;49.866;7.986;2023-02-18T09:15:14;100894.91;;;12.73;79.71
4346;BME280;2186;49.866;7.986;2023-02-18T09:17:41;100880.66;;;12.74;79.95
4346;BME280;2186;49.866;7.986;2023-02-18T09:20:07;100887.47;;;12.85;79.62
4346;BME280;2186;49.866;7.986;2023-02-18T09:22:34;100887.88;;;12.71;79.58
4346;BME280;2186;49.866;7.986;2023-02-18T09:25:01;100897.03;;;12.93;79.48
4346;BME280;2186;49.866;7.986;2023-02-18T09:27:28;100901.84;;;13.12;79.13
4346;BME280;2186;49.866;7.986;2023-02-18T09:29:54;100912.25;;;12.90;78.00
4346;BME280;2186;49.866;7.986;2023-02-18T09:32:21;100899.66;;;12.95;79.32
4346;BME280;2186;49.866;7.986;2023-02-18T09:34:59;100902.28;;;12.96;78.53
4346;BME280;2186;49.866;7.986;2023-02-18T09:37:26;100906.28;;;13.11;78.14
4346;BME280;2186;49.866;7.986;2023-02-18T09:39:54;100905.66;;;13.03;78.26
4346;BME280;2186;49.866;7.986;2023-02-18T09:42:27;100902.41;;;12.92;78.28
4346;BME280;2186;49.866;7.986;2023-02-18T09:44:59;100899.47;;;13.01;78.09
4346;BME280;2186;49.866;7.986;2023-02-18T09:47:38;100882.56;;;13.00;79.24
4346;BME280;2186;49.866;7.986;2023-02-18T09:50:12;100895.09;;;12.98;77.96
4346;BME280;2186;49.866;7.986;2023-02-18T09:52:39;100893.53;;;12.91;78.56
4346;BME280;2186;49.866;7.986;2023-02-18T09:55:37;100899.41;;;13.04;78.75
4346;BME280;2186;49.866;7.986;2023-02-18T09:58:10;100903.50;;;13.16;78.32
4346;BME280;2186;49.866;7.986;2023-02-18T10:00:44;100903.00;;;13.03;78.79
4346;BME280;2186;49.866;7.986;2023-02-18T10:08:20;100918.03;;;13.05;78.44
4346;BME280;2186;49.866;7.986;2023-02-18T10:10:48;100910.84;;;13.08;78.92
4346;BME280;2186;49.866;7.986;2023-02-18T10:13:20;100918.88;;;13.08;79.34
4346;BME280;2186;49.866;7.986;2023-02-18T10:15:48;100922.16;;;13.17;79.37
4346;BME280;2186;49.866;7.986;2023-02-18T10:18:27;100920.81;;;13.01;80.16
4346;BME280;2186;49.866;7.986;2023-02-18T10:21:09;100914.44;;;13.07;80.32
4346;BME280;2186;49.866;7.986;2023-02-18T10:23:40;100913.69;;;13.01;80.20
4346;BME280;2186;49.866;7.986;2023-02-18T10:26:13;100914.78;;;12.94;80.36
4346;BME280;2186;49.866;7.986;2023-02-18T10:28:41;100903.63;;;12.80;80.97
4346;BME280;2186;49.866;7.986;2023-02-18T10:31:10;100901.09;;;13.07;80.63
4346;BME280;2186;49.866;7.986;2023-02-18T10:36:26;100901.94;;;12.78;82.09
4346;BME280;2186;49.866;7.986;2023-02-18T10:42:28;100892.72;;;12.89;82.50
4346;BME280;2186;49.866;7.986;2023-02-18T10:50:42;100881.84;;;12.95;82.04
4346;BME280;2186;49.866;7.986;2023-02-18T10:55:43;100887.75;;;13.07;81.28
4346;BME280;2186;49.866;7.986;2023-02-18T11:00:56;100884.38;;;13.00;82.03
4346;BME280;2186;49.866;7.986;2023-02-18T11:06:37;100871.53;;;13.13;80.98
4346;BME280;2186;49.866;7.986;2023-02-18T11:09:05;100879.41;;;13.19;81.32
4346;BME280;2186;49.866;7.986;2023-02-18T11:11:36;100858.97;;;13.18;80.37
4346;BME280;2186;49.866;7.986;2023-02-18T11:14:06;100860.00;;;13.42;80.31
4346;BME280;2186;49.866;7.986;2023-02-18T11:19:02;100849.75;;;13.28;80.09
4346;BME280;2186;49.866;7.986;2023-02-18T11:21:35;100863.59;;;13.41;79.38
4346;BME280;2186;49.866;7.986;2023-02-18T11:24:15;100838.81;;;13.37;79.07
4346;BME280;2186;49.866;7.986;2023-02-18T11:26:42;100843.97;;;13.43;79.08
4346;BME280;2186;49.866;7.986;2023-02-18T11:29:19;100835.47;;;13.58;78.18
4346;BME280;2186;49.866;7.986;2023-02-18T11:31:52;100837.66;;;13.46;78.14
4346;BME280;2186;49.866;7.986;2023-02-18T11:34:22;100834.00;;;13.48;78.42
4346;BME280;2186;49.866;7.986;2023-02-18T11:36:51;100828.00;;;13.68;77.80
4346;BME280;2186;49.866;7.986;2023-02-18T11:39:24;100812.50;;;13.79;77.95
4346;BME280;2186;49.866;7.986;2023-02-18T11:41:55;100837.38;;;13.81;78.02
4346;BME280;2186;49.866;7.986;2023-02-18T11:49:27;100847.53;;;14.23;76.37
4346;BME280;2186;49.866;7.986;2023-02-18T11:52:24;100836.34;;;14.37;75.77
4346;BME280;2186;49.866;7.986;2023-02-18T11:55:04;100817.41;;;14.44;75.66
4346;BME280;2186;49.866;7.986;2023-02-18T11:57:36;100837.25;;;14.62;74.96
4346;BME280;2186;49.866;7.986;2023-02-18T12:02:42;100823.22;;;14.31;75.16
4346;BME280;2186;49.866;7.986;2023-02-18T12:05:24;100810.22;;;14.20;76.28
4346;BME280;2186;49.866;7.986;2023-02-18T12:13:24;100797.50;;;14.02;77.09
4346;BME280;2186;49.866;7.986;2023-02-18T12:21:51;100782.81;;;13.88;78.01
4346;BME280;2186;49.866;7.986;2023-02-18T12:24:35;100779.63;;;13.77;77.76
4346;BME280;2186;49.866;7.986;2023-02-18T13:09:54;100716.25;;;14.06;78.72
4346;BME280;2186;49.866;7.986;2023-02-18T13:15:21;100719.16;;;13.75;79.57
4346;BME280;2186;49.866;7.986;2023-02-18T13:17:50;100712.88;;;14.01;79.05
4346;BME280;2186;49.866;7.986;2023-02-18T13:20:27;100700.81;;;14.14;78.67
4346;BME280;2186;49.866;7.986;2023-02-18T13:22:55;100703.06;;;14.24;78.73
4346;BME280;2186;49.866;7.986;2023-02-18T13:25:22;100710.44;;;14.43;77.71
4346;BME280;2186;49.866;7.986;2023-02-18T13:28:05;100715.75;;;14.44;77.52
4346;BME280;2186;49.866;7.986;2023-02-18T13:33:28;100724.13;;;14.59;78.15
4346;BME280;2186;49.866;7.986;2023-02-18T13:38:48;100728.41;;;14.63;77.71
4346;BME280;2186;49.866;7.986;2023-02-18T13:41:18;100721.25;;;14.40;77.96
4346;BME280;2186;49.866;7.986;2023-02-18T13:43:45;100699.06;;;14.36;77.76
4346;BME280;2186;49.866;7.986;2023-02-18T13:46:20;100699.72;;;14.43;78.55
4346;BME280;2186;49.866;7.986;2023-02-18T13:51:31;100713.38;;;14.35;78.22
4346;BME280;2186;49.866;7.986;2023-02-18T13:54:17;100695.78;;;14.30;78.08
4346;BME280;2186;49.866;7.986;2023-02-18T13:57:00;100706.53;;;14.28;78.91
4346;BME280;2186;49.866;7.986;2023-02-18T13:59:39;100701.69;;;14.14;79.20
4346;BME280;2186;49.866;7.986;2023-02-18T14:02:28;100712.88;;;14.01;79.73
4346;BME280;2186;49.866;7.986;2023-02-18T14:04:57;100706.88;;;13.94;80.48
4346;BME280;2186;49.866;7.986;2023-02-18T14:07:49;100720.78;;;14.04;80.01
4346;BME280;2186;49.866;7.986;2023-02-18T14:25:52;100732.84;;;13.90;81.23
4346;BME280;2186;49.866;7.986;2023-02-18T14:28:39;100717.03;;;13.84;81.25
4346;BME280;2186;49.866;7.986;2023-02-18T14:36:42;100728.97;;;13.74;81.87
4346;BME280;2186;49.866;7.986;2023-02-18T14:44:35;100740.63;;;13.72;82.46
4346;BME280;2186;49.866;7.986;2023-02-18T14:47:21;100741.38;;;13.75;82.30
4346;BME280;2186;49.866;7.986;2023-02-18T14:49:53;100742.97;;;13.81;82.41
4346;BME280;2186;49.866;7.986;2023-02-18T14:52:33;100746.47;;;13.83;82.24
4346;BME280;2186;49.866;7.986;2023-02-18T14:55:05;100749.13;;;13.83;82.48
4346;BME280;2186;49.866;7.986;2023-02-18T14:57:40;100746.78;;;13.74;82.61
4346;BME280;2186;49.866;7.986;2023-02-18T15:00:32;100758.41;;;13.73;83.01
4346;BME280;2186;49.866;7.986;2023-02-18T15:03:00;100757.66;;;13.68;82.97
4346;BME280;2186;49.866;7.986;2023-02-18T15:05:29;100752.66;;;13.58;83.33
4346;BME280;2186;49.866;7.986;2023-02-18T15:08:01;100754.13;;;13.67;83.35
4346;BME280;2186;49.866;7.986;2023-02-18T15:10:36;100755.81;;;13.70;83.07
4346;BME280;2186;49.866;7.986;2023-02-18T15:13:08;100763.34;;;13.58;83.60
4346;BME280;2186;49.866;7.986;2023-02-18T15:15:39;100753.41;;;13.62;83.99
4346;BME280;2186;49.866;7.986;2023-02-18T15:18:21;100757.16;;;13.56;85.05
4346;BME280;2186;49.866;7.986;2023-02-18T15:20:49;100755.16;;;13.63;84.90
4346;BME280;2186;49.866;7.986;2023-02-18T15:23:16;100756.72;;;13.44;84.52
4346;BME280;2186;49.866;7.986;2023-02-18T15:25:48;100747.63;;;13.49;85.20
4346;BME280;2186;49.866;7.986;2023-02-18T15:28:27;100758.59;;;13.40;85.61
4346;BME280;2186;49.866;7.986;2023-02-18T15:30:58;100763.09;;;13.38;85.91
4346;BME280;2186;49.866;7.986;2023-02-18T15:33:26;100767.06;;;13.53;85.61
4346;BME280;2186;49.866;7.986;2023-02-18T15:36:04;100765.44;;;13.49;85.34
4346;BME280;2186;49.866;7.986;2023-02-18T15:38:32;100766.41;;;13.46;86.12
4346;BME280;2186;49.866;7.986;2023-02-18T15:40:59;100764.84;;;13.39;85.87
4346;BME280;2186;49.866;7.986;2023-02-18T15:43:26;100765.50;;;13.19;86.71
4346;BME280;2186;49.866;7.986;2023-02-18T15:45:55;100771.28;;;13.33;87.12
4346;BME280;2186;49.866;7.986;2023-02-18T15:50:53;100760.00;;;13.24;87.91
4346;BME280;2186;49.866;7.986;2023-02-18T15:53:23;100765.88;;;13.35;87.04
4346;BME280;2186;49.866;7.986;2023-02-18T15:55:52;100773.19;;;13.28;87.56
4346;BME280;2186;49.866;7.986;2023-02-18T15:58:28;100766.41;;;13.46;86.76
4346;BME280;2186;49.866;7.986;2023-02-18T16:00:58;100769.13;;;13.45;86.42
4346;BME280;2186;49.866;7.986;2023-02-18T16:11:48;100762.53;;;13.55;86.12
4346;BME280;2186;49.866;7.986;2023-02-18T16:22:31;100770.50;;;13.00;88.20
4346;BME280;2186;49.866;7.986;2023-02-18T16:30:30;100766.53;;;12.84;89.39
4346;BME280;2186;49.866;7.986;2023-02-18T16:32:58;100778.09;;;12.85;89.00
4346;BME280;2186;49.866;7.986;2023-02-18T16:35:28;100781.78;;;12.81;88.95
4346;BME280;2186;49.866;7.986;2023-02-18T16:38:02;100775.22;;;12.92;89.54